Time;durP1;ratioP1;P1;durP2;ratioP2;P2;SDS_P1;SDS_P2;PMS_P1;PMS_P2;Temp;Humidity;BMP_temperature;BMP_pressure;BME280_temperature;BME280_humidity;BME280_pressure;Samples;Min_cycle;Max_cycle;Signal;HPM_P1;HPM_P2
2021/08/13 05:11:03;;;;;;;8.40;6.30;;;;;;;22.23;72.22;100874.42;1763046;81;21169;-69
2021/08/13 05:13:39;;;;;;;7.65;6.80;;;;;;;22.34;72.68;100879.70;1747748;82;21279;-69
2021/08/13 05:16:12;;;;;;;9.73;6.42;;;;;;;22.39;72.69;100878.09;1763863;81;21533;-69
2021/08/13 05:18:46;;;;;;;11.15;6.30;;;;;;;22.46;72.78;100875.45;1747962;82;22532;-68
2021/08/13 05:21:19;;;;;;;9.78;6.05;;;;;;;22.53;72.58;100870.97;1763972;81;21233;-69
2021/08/13 05:23:53;;;;;;;10.40;5.67;;;;;;;22.57;72.03;100869.03;1746876;81;21203;-71
2021/08/13 05:26:29;;;;;;;12.07;6.05;;;;;;;22.63;72.11;100867.45;1767988;81;21292;-72
2021/08/13 05:29:03;;;;;;;8.08;6.05;;;;;;;22.69;72.07;100865.31;1750579;81;21330;-72
2021/08/13 05:31:36;;;;;;;;;;;;;;;22.75;71.90;100865.86;1736257;82;21185;-71
2021/08/13 05:34:09;;;;;;;12.68;6.12;;;;;;;22.79;71.73;100864.43;1745201;82;20358;-68
2021/08/13 05:36:42;;;;;;;12.43;6.53;;;;;;;22.82;71.60;100857.87;1745380;82;21224;-67
2021/08/13 05:39:15;;;;;;;7.85;5.60;;;;;;;22.90;71.46;100860.37;1745373;82;21455;-66
2021/08/13 05:41:49;;;;;;;8.88;6.20;;;;;;;22.97;71.18;100863.38;1745258;82;21185;-68
2021/08/13 05:44:23;;;;;;;10.65;5.85;;;;;;;23.02;71.01;100866.27;1745183;82;21192;-69
2021/08/13 05:46:57;;;;;;;9.63;6.65;;;;;;;23.08;71.10;100865.44;1744034;82;21692;-70
2021/08/13 05:49:30;;;;;;;7.25;5.70;;;;;;;23.17;71.10;100866.89;1745084;82;22171;-68
2021/08/13 05:52:04;;;;;;;6.03;5.42;;;;;;;23.22;71.32;100863.60;1755183;82;21290;-69
2021/08/13 05:54:37;;;;;;;8.28;5.97;;;;;;;23.30;71.64;100866.09;1734004;82;21307;-67
2021/08/13 05:57:11;;;;;;;6.92;5.40;;;;;;;23.34;71.74;100865.98;1747765;82;21314;-68
2021/08/13 05:59:44;;;;;;;7.35;5.53;;;;;;;23.42;72.09;100866.66;1734376;82;22003;-68
2021/08/13 06:02:21;;;;;;;;;;;;;;;23.48;72.17;100863.66;1749967;82;21195;-70
2021/08/13 06:04:57;;;;;;;9.60;5.60;;;;;;;23.53;72.15;100864.37;1726903;83;20277;-70
2021/08/13 06:07:31;;;;;;;7.97;6.00;;;;;;;23.53;72.11;100863.87;1743925;82;21865;-66
2021/08/13 06:10:06;;;;;;;8.33;5.78;;;;;;;23.56;71.97;100863.47;1726836;83;21232;-66
2021/08/13 06:12:40;;;;;;;8.03;5.75;;;;;;;23.60;72.30;100862.02;1745240;82;21309;-69
2021/08/13 06:15:16;;;;;;;12.00;6.67;;;;;;;23.64;72.26;100863.78;1729494;83;21562;-67
2021/08/13 06:17:50;;;;;;;8.50;5.90;;;;;;;23.69;72.18;100866.66;1746889;82;21314;-66
2021/08/13 06:20:26;;;;;;;8.20;5.10;;;;;;;23.73;71.95;100863.87;1725000;83;21232;-66
2021/08/13 06:23:01;;;;;;;7.08;5.33;;;;;;;23.77;71.66;100857.07;1739426;82;21208;-66
2021/08/13 06:25:36;;;;;;;10.45;6.17;;;;;;;23.81;71.38;100860.45;1724722;83;21202;-69
2021/08/13 06:28:10;;;;;;;8.60;6.05;;;;;;;23.84;71.32;100860.05;1744684;82;21302;-69
2021/08/13 06:30:44;;;;;;;8.35;6.15;;;;;;;23.86;71.24;100857.98;1726241;83;22020;-68
2021/08/13 06:33:19;;;;;;;8.43;6.05;;;;;;;23.89;70.89;100867.45;1744414;82;21322;-71
2021/08/13 06:35:52;;;;;;;11.25;6.60;;;;;;;23.92;70.93;100869.72;1726339;83;21341;-68
2021/08/13 06:38:26;;;;;;;10.35;6.50;;;;;;;23.90;70.88;100874.45;1745960;82;21310;-71
2021/08/13 06:41:01;;;;;;;7.92;6.03;;;;;;;23.87;71.29;100872.19;1728653;83;21328;-69
2021/08/13 06:43:34;;;;;;;7.92;6.20;;;;;;;23.85;71.25;100876.41;1744540;82;21365;-67
2021/08/13 06:46:07;;;;;;;10.25;7.10;;;;;;;23.83;71.33;100878.98;1701326;83;21400;-69
2021/08/13 06:48:41;;;;;;;7.40;6.15;;;;;;;23.81;71.30;100878.38;1744527;82;21203;-68
2021/08/13 06:51:17;;;;;;;9.80;6.70;;;;;;;23.79;71.55;100873.73;1726194;83;21236;-69
2021/08/13 06:53:50;;;;;;;;;;;;;;;23.78;71.45;100869.42;1746956;82;21322;-68
2021/08/13 06:56:23;;;;;;;14.20;8.83;;;;;;;23.82;71.60;100871.98;1726234;83;20348;-69
2021/08/13 06:58:57;;;;;;;8.68;6.87;;;;;;;23.84;71.73;100872.09;1744520;82;21361;-70
2021/08/13 07:01:31;;;;;;;10.60;6.47;;;;;;;23.89;71.86;100874.13;1687331;83;21188;-68
2021/08/13 07:04:05;;;;;;;9.08;7.20;;;;;;;23.96;71.95;100879.78;1726847;83;21428;-70
2021/08/13 07:06:39;;;;;;;12.03;6.80;;;;;;;24.04;72.35;100885.44;1734718;82;22068;-67
2021/08/13 07:09:12;;;;;;;15.13;7.03;;;;;;;24.09;72.64;100888.34;1767920;81;21213;-69
2021/08/13 07:11:46;;;;;;;9.08;7.33;;;;;;;24.10;72.63;100891.31;1768268;81;21232;-66
2021/08/13 07:14:20;;;;;;;10.20;7.40;;;;;;;24.13;72.52;100893.58;1767504;81;21388;-71
2021/08/13 07:16:53;;;;;;;10.00;7.22;;;;;;;24.15;72.91;100898.20;1768552;81;21349;-69
2021/08/13 07:23:35;;;;;;;12.35;7.87;;;;;;;24.20;73.05;100896.23;1768061;81;21968;-70
2021/08/13 07:26:33;;;;;;;18.12;8.15;;;;;;;24.23;73.42;100894.48;1771480;81;21320;-71
2021/08/13 07:29:06;;;;;;;12.93;7.20;;;;;;;24.24;73.23;100896.14;1768889;81;21232;-71
2021/08/13 07:31:39;;;;;;;11.20;7.62;;;;;;;24.22;73.17;100895.53;1768168;81;21339;-72
2021/08/13 07:34:12;;;;;;;9.40;7.33;;;;;;;24.21;73.09;100896.55;1768065;81;21248;-72
2021/08/13 07:36:46;;;;;;;9.13;7.17;;;;;;;24.20;73.35;100898.91;1768256;81;21971;-72
2021/08/13 07:39:23;;;;;;;10.38;7.45;;;;;;;24.14;73.26;100900.59;1766657;81;21217;-68
2021/08/13 07:41:57;;;;;;;11.63;7.83;;;;;;;24.10;73.40;100902.02;1768371;81;21554;-67
2021/08/13 07:44:31;;;;;;;12.63;8.03;;;;;;;24.07;73.60;100901.11;1767615;81;21264;-66
2021/08/13 07:47:06;;;;;;;14.33;7.70;;;;;;;24.03;73.91;100894.48;1734837;80;22189;-65
2021/08/13 07:49:39;;;;;;;10.18;8.13;;;;;;;24.02;74.08;100899.54;1697955;84;21593;-65
2021/08/13 07:52:12;;;;;;;;;;;;;;;24.02;74.22;100904.38;1701075;84;21359;-66
2021/08/13 07:54:45;;;;;;;14.35;8.20;;;;;;;24.05;74.14;100905.28;1695340;84;20276;-65
2021/08/13 07:57:19;;;;;;;11.68;8.50;;;;;;;24.00;74.27;100903.74;1696417;84;21174;-69
2021/08/13 07:59:53;;;;;;;14.40;8.60;;;;;;;23.99;74.66;100911.47;1732556;82;21767;-72
2021/08/13 08:02:26;;;;;;;12.63;8.75;;;;;;;24.01;74.99;100919.28;1695975;84;21209;-70
2021/08/13 08:05:00;;;;;;;14.03;8.23;;;;;;;24.05;75.26;100921.33;1731496;82;21231;-70
2021/08/13 08:07:35;;;;;;;10.85;8.30;;;;;;;24.09;75.30;100921.78;1695926;84;22252;-72
2021/08/13 08:10:08;;;;;;;13.10;8.83;;;;;;;24.14;75.14;100921.98;1656251;86;21325;-68
2021/08/13 08:12:41;;;;;;;12.60;8.23;;;;;;;24.18;75.14;100930.41;1655070;86;21199;-69
2021/08/13 08:15:15;;;;;;;11.88;8.40;;;;;;;24.20;74.77;100927.83;1720070;83;21244;-68
2021/08/13 08:17:47;;;;;;;11.10;7.95;;;;;;;24.24;74.94;100940.29;1717559;83;22028;-67
2021/08/13 08:20:20;;;;;;;12.93;9.00;;;;;;;24.26;74.67;100939.56;1717150;83;21489;-69
2021/08/13 08:22:53;;;;;;;13.53;8.95;;;;;;;24.31;74.44;100941.09;1717661;83;21454;-70
2021/08/13 08:25:25;;;;;;;11.78;7.45;;;;;;;24.32;73.94;100944.89;1717258;83;21343;-67
2021/08/13 08:27:58;;;;;;;11.00;8.13;;;;;;;24.31;73.96;100957.16;1717876;83;21197;-70
2021/08/13 08:30:30;;;;;;;11.45;7.67;;;;;;;24.33;73.90;100960.44;1716718;83;21501;-68
2021/08/13 08:33:03;;;;;;;11.73;7.92;;;;;;;24.33;73.33;100964.45;1717565;83;21419;-68
2021/08/13 08:35:35;;;;;;;12.35;8.43;;;;;;;24.31;73.26;100966.02;1716700;83;21370;-66
2021/08/13 08:38:08;;;;;;;14.68;8.23;;;;;;;24.28;73.27;100971.77;1720641;83;21181;-68
2021/08/13 08:40:42;;;;;;;12.55;8.93;;;;;;;24.24;72.91;100973.20;1717681;83;21334;-67
2021/08/13 08:43:14;;;;;;;;;;;;;;;24.22;72.91;100979.27;1720005;83;21610;-68
2021/08/13 08:45:46;;;;;;;11.97;8.68;;;;;;;24.22;72.85;100983.83;1716887;83;20267;-67
2021/08/13 08:48:19;;;;;;;15.17;8.83;;;;;;;24.14;73.27;100987.53;1717620;83;21310;-69
2021/08/13 08:55:01;;;;;;;11.30;8.75;;;;;;;24.03;73.34;100990.77;1717333;83;21132;-69
2021/08/13 08:57:34;;;;;;;13.78;7.95;;;;;;;24.01;73.76;100990.16;1716132;83;21311;-68
2021/08/13 09:00:11;;;;;;;11.85;9.05;;;;;;;24.02;73.66;100991.82;1717034;83;21981;-68
2021/08/13 09:02:44;;;;;;;13.25;9.13;;;;;;;24.04;74.30;100989.76;1722158;83;21354;-65
2021/08/13 09:05:17;;;;;;;13.88;8.98;;;;;;;24.08;74.91;100993.18;1717559;83;21322;-74
2021/08/13 09:07:49;;;;;;;13.10;8.45;;;;;;;24.14;74.93;100996.89;1717854;83;21310;-70
2021/08/13 09:10:22;;;;;;;;;;;;;;;24.19;74.59;100996.27;1742114;82;21211;-69
2021/08/13 09:12:54;;;;;;;14.47;8.93;;;;;;;24.22;74.46;100996.66;1745497;82;20345;-72
2021/08/13 09:15:31;;;;;;;12.40;9.18;;;;;;;24.23;74.27;100998.33;1709834;84;21302;-75
2021/08/13 09:18:22;;;;;;;13.80;8.80;;;;;;;24.23;74.04;101001.51;1708583;83;21208;-74
2021/08/13 09:21:02;;;;;;;14.45;9.85;;;;;;;24.22;73.80;100998.55;1708486;84;21394;-73
2021/08/13 09:23:48;;;;;;;13.62;9.75;;;;;;;24.20;74.00;101006.75;1692112;84;21203;-72
2021/08/13 09:26:23;;;;;;;16.67;9.75;;;;;;;24.20;74.55;101004.08;1750810;82;21196;-74
2021/08/13 09:29:12;;;;;;;16.02;9.48;;;;;;;24.22;75.10;101004.69;1746108;82;21314;-74
2021/08/13 09:32:04;;;;;;;16.62;10.20;;;;;;;24.24;74.65;101001.30;1744762;82;21211;-74
2021/08/13 09:34:46;;;;;;;13.05;9.68;;;;;;;24.30;75.06;101013.03;1708404;83;22001;-72
2021/08/13 09:37:19;;;;;;;15.68;10.30;;;;;;;24.32;75.24;101002.94;1642329;84;21239;-71
2021/08/13 09:39:57;;;;;;;15.43;9.10;;;;;;;24.34;75.11;101012.41;1745501;82;21235;-71
2021/08/13 09:42:38;;;;;;;12.40;9.58;;;;;;;24.36;75.17;101009.54;1721619;82;21214;-78
2021/08/13 09:45:12;;;;;;;15.03;9.63;;;;;;;24.38;75.09;101016.84;1713704;83;21206;-72
2021/08/13 09:47:48;;;;;;;13.98;10.70;;;;;;;24.38;74.96;101019.02;1713658;83;21223;-72
2021/08/13 09:50:40;;;;;;;12.85;10.15;;;;;;;24.45;75.21;101016.32;1719872;83;21297;-73
2021/08/13 09:53:14;;;;;;;14.40;10.05;;;;;;;24.49;74.84;101015.69;1715326;83;21336;-71
2021/08/13 09:55:48;;;;;;;14.70;10.28;;;;;;;24.55;75.00;101018.06;1715955;83;21333;-74
2021/08/13 10:02:41;;;;;;;13.55;9.60;;;;;;;24.63;74.72;101023.17;1716148;82;21701;-72
2021/08/13 10:05:25;;;;;;;16.57;12.18;;;;;;;24.52;73.76;101023.31;1723629;83;22161;-69
2021/08/13 10:12:09;;;;;;;16.87;9.45;;;;;;;24.33;74.48;101030.02;1698561;83;21308;-73
2021/08/13 10:14:45;;;;;;;16.40;9.63;;;;;;;24.20;74.95;101028.16;1756644;81;21117;-69
2021/08/13 10:17:21;;;;;;;15.70;11.12;;;;;;;24.18;75.33;101025.38;1758691;81;21263;-70
2021/08/13 10:19:56;;;;;;;15.45;10.05;;;;;;;24.14;75.46;101026.83;1702820;81;21203;-70
2021/08/13 10:22:30;;;;;;;18.10;10.72;;;;;;;24.08;75.27;101027.13;1754202;81;21187;-74
2021/08/13 10:25:05;;;;;;;17.07;10.20;;;;;;;24.07;75.42;101030.85;1755848;81;21180;-70
2021/08/13 10:27:38;;;;;;;12.40;10.20;;;;;;;24.09;75.49;101034.14;1754540;81;21196;-68
2021/08/13 10:30:16;;;;;;;15.75;9.95;;;;;;;24.09;75.59;101032.30;1754193;81;21989;-70
2021/08/13 10:32:51;;;;;;;13.75;10.35;;;;;;;24.09;75.54;101028.78;1755835;81;21533;-76
2021/08/13 10:35:28;;;;;;;12.78;10.15;;;;;;;24.07;75.84;101025.50;1755776;81;22175;-75
2021/08/13 10:38:02;;;;;;;17.17;11.97;;;;;;;24.05;75.87;101034.19;1705252;83;21195;-76
2021/08/13 10:40:38;;;;;;;13.45;10.03;;;;;;;24.04;75.96;101024.02;1762763;81;21346;-76
2021/08/13 10:43:12;;;;;;;13.18;10.05;;;;;;;24.01;76.07;101036.46;1728912;81;21291;-77
2021/08/13 10:45:46;;;;;;;;;;;;;;;24.00;76.61;101038.02;1760923;81;21263;-74
2021/08/13 10:48:29;;;;;;;10.95;9.38;;;;;;;24.00;76.91;101042.03;1728565;81;20759;-73
2021/08/13 10:51:03;;;;;;;12.35;9.75;;;;;;;23.98;76.85;101044.05;1755587;81;21161;-73
2021/08/13 10:53:37;;;;;;;;;;;;;;;23.97;76.48;101037.91;1757358;81;21228;-72
2021/08/13 10:56:13;;;;;;;13.30;8.73;;;;;;;23.92;75.92;101048.89;1753742;81;20347;-76
2021/08/13 10:58:48;;;;;;;15.28;9.53;;;;;;;23.83;75.97;101044.78;1728711;81;22107;-70
2021/08/13 11:01:27;;;;;;;13.50;9.33;;;;;;;23.80;76.25;101046.00;1755541;81;21322;-71
2021/08/13 11:04:11;;;;;;;10.93;8.85;;;;;;;23.81;76.31;101044.16;1756823;81;21180;-74
2021/08/13 11:06:47;;;;;;;13.13;9.43;;;;;;;23.83;76.65;101046.11;1759374;81;21184;-72
2021/08/13 11:09:32;;;;;;;10.43;8.58;;;;;;;23.80;76.71;101045.17;1754119;81;21530;-72
2021/08/13 11:12:15;;;;;;;12.00;8.78;;;;;;;23.83;77.00;101046.94;1753900;81;22223;-69
2021/08/13 11:14:55;;;;;;;13.75;8.93;;;;;;;23.86;76.90;101045.72;1751973;81;21338;-69
2021/08/13 11:17:44;;;;;;;18.75;8.63;;;;;;;23.90;76.87;101039.75;1751686;81;21334;-69
2021/08/13 11:20:20;;;;;;;13.75;8.88;;;;;;;23.94;77.02;101040.16;1752075;81;21303;-72
2021/08/13 11:23:02;;;;;;;11.00;8.10;;;;;;;23.95;76.77;101039.94;1752717;81;21424;-72
2021/08/13 11:25:49;;;;;;;10.25;7.97;;;;;;;23.96;76.49;101034.91;1752485;81;21235;-74
2021/08/13 11:32:36;;;;;;;11.48;8.40;;;;;;;23.91;76.86;101029.85;1753153;81;21136;-71
2021/08/13 11:35:11;;;;;;;11.95;8.15;;;;;;;23.84;76.84;101024.50;1751673;81;22001;-70
2021/08/13 11:37:47;;;;;;;11.88;8.05;;;;;;;23.82;76.76;101026.56;1750372;81;21198;-68
2021/08/13 11:40:27;;;;;;;11.35;8.93;;;;;;;23.79;76.71;101024.80;1752697;81;21885;-72
2021/08/13 11:43:04;;;;;;;11.03;8.83;;;;;;;23.79;76.76;101024.80;1752591;81;21220;-68
2021/08/13 11:45:41;;;;;;;11.78;9.33;;;;;;;23.78;76.76;101023.17;1752804;81;21309;-71
2021/08/13 11:48:18;;;;;;;10.48;8.85;;;;;;;23.79;76.96;101014.10;1752109;81;22029;-76
2021/08/13 11:50:51;;;;;;;12.50;9.25;;;;;;;23.79;76.88;101004.23;1753198;81;21518;-73
2021/08/13 11:53:37;;;;;;;16.20;9.95;;;;;;;23.84;77.08;101007.13;1758623;80;21121;-74
2021/08/13 11:56:27;;;;;;;13.13;9.60;;;;;;;23.85;77.00;101005.28;1753648;81;21303;-75
2021/08/13 11:59:08;;;;;;;14.15;9.48;;;;;;;23.87;76.55;101000.04;1734845;81;21223;-71
2021/08/13 12:01:54;;;;;;;12.55;9.98;;;;;;;23.89;76.35;101000.66;1752600;81;21233;-72
2021/08/13 12:04:30;;;;;;;14.33;9.68;;;;;;;23.93;76.30;100995.73;1752088;81;22154;-73
2021/08/13 12:07:08;;;;;;;12.82;9.15;;;;;;;23.91;76.35;101000.44;1752976;81;21299;-74
2021/08/13 12:09:47;;;;;;;16.48;10.20;;;;;;;23.93;76.16;100991.72;1751717;81;21236;-79
2021/08/13 12:12:30;;;;;;;16.25;10.90;;;;;;;23.93;76.39;100979.15;1753343;81;21358;-75
2021/08/13 12:15:06;;;;;;;11.48;9.28;;;;;;;23.97;76.54;100975.56;1755830;81;21172;-75
2021/08/13 12:17:40;;;;;;;15.03;10.08;;;;;;;23.99;76.74;100971.66;1762153;81;21277;-77
2021/08/13 12:20:14;;;;;;;14.55;9.95;;;;;;;24.02;76.74;100977.11;1752342;81;21326;-76
2021/08/13 12:22:48;;;;;;;15.10;10.85;;;;;;;24.03;76.35;100975.55;1752945;81;21148;-73
2021/08/13 12:25:22;;;;;;;12.03;10.45;;;;;;;24.03;75.58;100978.23;1751907;81;21208;-72
2021/08/13 12:32:06;;;;;;;15.68;10.70;;;;;;;24.03;75.06;100982.75;1752955;81;21144;-74
2021/08/13 12:34:41;;;;;;;13.62;10.53;;;;;;;24.06;75.31;100988.55;1752323;81;21613;-70
2021/08/13 12:37:14;;;;;;;;;;;;;;;24.12;75.27;100996.28;1755294;81;21286;-71
2021/08/13 12:39:49;;;;;;;12.18;10.13;;;;;;;24.16;75.04;100989.98;1751561;81;20810;-70
2021/08/13 12:42:24;;;;;;;14.00;10.08;;;;;;;24.14;75.09;100995.56;1740333;81;21363;-68
